Time;durP1;ratioP1;P1;durP2;ratioP2;P2;SDS_P1;SDS_P2;PMS_P1;PMS_P2;Temp;Humidity;BMP_temperature;BMP_pressure;BME280_temperature;BME280_humidity;BME280_pressure;Samples;Min_cycle;Max_cycle;Signal;HPM_P1;HPM_P2
2022/11/10 00:01:50;;;;;;;;;;;9.80;99.90;;;;;;5157243;27;20441;-38
2022/11/10 00:04:15;;;;;;;;;;;9.80;99.90;;;;;;5156379;27;19965;-38
2022/11/10 00:06:41;;;;;;;;;;;9.70;99.90;;;;;;5157195;27;19907;-40
2022/11/10 00:09:06;;;;;;;;;;;9.70;99.90;;;;;;5155314;27;19915;-43
2022/11/10 00:11:32;;;;;;;;;;;9.70;99.90;;;;;;5155812;27;20023;-40
2022/11/10 00:17:00;;;;;;;;;;;9.70;99.90;;;;;;5156568;27;19914;-38
2022/11/10 00:19:29;;;;;;;;;;;9.60;99.90;;;;;;5156750;27;19922;-38
2022/11/10 00:21:54;;;;;;;;;;;9.60;99.90;;;;;;5156906;27;20353;-38
2022/11/10 00:24:20;;;;;;;;;;;9.60;99.90;;;;;;5156268;27;19915;-40
2022/11/10 00:26:45;;;;;;;;;;;9.60;99.90;;;;;;5156786;27;20006;-39
2022/11/10 00:29:11;;;;;;;;;;;9.60;99.90;;;;;;5156827;27;19907;-41
2022/11/10 00:31:36;;;;;;;;;;;9.60;99.90;;;;;;5155913;27;20285;-39
2022/11/10 00:34:02;;;;;;;;;;;9.60;99.90;;;;;;5156629;27;19907;-38
2022/11/10 00:36:28;;;;;;;;;;;9.60;99.90;;;;;;5156648;27;19908;-38
2022/11/10 00:38:53;;;;;;;;;;;9.60;99.90;;;;;;5155128;27;19923;-38
2022/11/10 00:41:19;;;;;;;;;;;9.60;99.90;;;;;;5156630;27;19914;-38
2022/11/10 00:43:45;;;;;;;;;;;9.60;99.90;;;;;;5156042;27;19923;-38
2022/11/10 00:46:10;;;;;;;;;;;9.50;99.90;;;;;;5155745;27;19911;-38
2022/11/10 00:48:36;;;;;;;;;;;9.50;99.90;;;;;;5156551;27;20002;-40
2022/11/10 00:51:01;;;;;;;;;;;9.50;99.90;;;;;;5156487;27;19963;-38
2022/11/10 00:53:27;;;;;;;;;;;9.50;99.90;;;;;;5155472;27;19907;-38
2022/11/10 00:55:52;;;;;;;;;;;9.50;99.90;;;;;;5156232;27;19907;-39
2022/11/10 00:58:18;;;;;;;;;;;9.50;99.90;;;;;;5155082;27;19919;-40
2022/11/10 01:00:43;;;;;;;;;;;9.50;99.90;;;;;;5156032;27;20333;-39
2022/11/10 01:03:15;;;;;;;;;;;9.50;99.90;;;;;;5155944;27;19908;-42
2022/11/10 01:05:41;;;;;;;;;;;9.40;99.90;;;;;;5154957;27;19998;-40
2022/11/10 01:08:07;;;;;;;;;;;9.40;99.90;;;;;;5155859;27;20345;-39
2022/11/10 01:10:33;;;;;;;;;;;9.40;99.90;;;;;;5155774;27;19911;-41
2022/11/10 01:12:58;;;;;;;;;;;9.40;99.90;;;;;;5155076;27;19907;-38
2022/11/10 01:15:24;;;;;;;;;;;9.40;99.90;;;;;;5155813;27;20002;-39
2022/11/10 01:17:49;;;;;;;;;;;9.40;99.90;;;;;;5154845;27;19923;-40
2022/11/10 01:20:15;;;;;;;;;;;9.40;99.90;;;;;;5154920;27;19919;-39
2022/11/10 01:22:41;;;;;;;;;;;9.40;99.90;;;;;;5155652;27;19915;-37
2022/11/10 01:25:07;;;;;;;;;;;9.40;99.90;;;;;;5154716;27;19932;-38
2022/11/10 01:27:32;;;;;;;;;;;9.30;99.90;;;;;;5154682;27;20169;-39
2022/11/10 01:29:57;;;;;;;;;;;9.40;99.90;;;;;;5155532;27;19907;-38
2022/11/10 01:32:23;;;;;;;;;;;9.30;99.90;;;;;;5155400;27;19907;-40
2022/11/10 01:34:48;;;;;;;;;;;9.40;99.90;;;;;;5154671;27;19907;-38
2022/11/10 01:37:14;;;;;;;;;;;9.40;99.90;;;;;;5154898;27;19973;-38
2022/11/10 01:39:39;;;;;;;;;;;9.40;99.90;;;;;;5155341;27;19926;-39
2022/11/10 01:42:05;;;;;;;;;;;9.40;99.90;;;;;;5154635;27;20363;-37
2022/11/10 01:44:33;;;;;;;;;;;9.30;99.90;;;;;;5154958;27;19919;-38
2022/11/10 01:46:58;;;;;;;;;;;9.40;99.90;;;;;;5155151;27;19907;-44
2022/11/10 01:49:25;;;;;;;;;;;9.40;99.90;;;;;;5154562;27;19960;-38
2022/11/10 01:52:00;;;;;;;;;;;9.30;99.90;;;;;;5155132;27;19930;-38
2022/11/10 01:54:31;;;;;;;;;;;9.40;99.90;;;;;;5155024;27;20342;-38
2022/11/10 01:56:58;;;;;;;;;;;9.30;99.90;;;;;;5154631;27;19907;-38
2022/11/10 01:59:25;;;;;;;;;;;9.30;99.90;;;;;;5154884;27;20388;-38
2022/11/10 02:01:52;;;;;;;;;;;9.30;99.90;;;;;;5154074;27;19907;-41
2022/11/10 02:04:19;;;;;;;;;;;9.30;99.90;;;;;;5154847;27;19953;-40
2022/11/10 02:06:45;;;;;;;;;;;9.30;99.90;;;;;;5154715;27;19907;-39
2022/11/10 02:09:11;;;;;;;;;;;9.30;99.90;;;;;;5153714;27;19985;-41
2022/11/10 02:11:37;;;;;;;;;;;9.30;99.90;;;;;;5154718;27;20375;-39
2022/11/10 02:14:03;;;;;;;;;;;9.30;99.90;;;;;;5154740;27;19958;-38
2022/11/10 02:16:29;;;;;;;;;;;9.30;99.90;;;;;;5153749;27;20516;-38
2022/11/10 02:18:54;;;;;;;;;;;9.30;99.90;;;;;;5154654;27;19961;-39
2022/11/10 02:21:20;;;;;;;;;;;9.20;99.90;;;;;;5154702;27;20002;-38
2022/11/10 02:23:47;;;;;;;;;;;9.30;99.90;;;;;;5153774;27;19915;-39
2022/11/10 02:26:13;;;;;;;;;;;9.20;99.90;;;;;;5154926;27;19907;-38
2022/11/10 02:28:38;;;;;;;;;;;9.20;99.90;;;;;;5154160;27;19915;-39
2022/11/10 02:31:04;;;;;;;;;;;9.30;99.90;;;;;;5153906;27;20430;-38
2022/11/10 02:33:30;;;;;;;;;;;9.30;99.90;;;;;;5154497;27;19914;-39
2022/11/10 02:35:55;;;;;;;;;;;9.30;99.90;;;;;;5154090;27;19927;-39
2022/11/10 02:38:21;;;;;;;;;;;9.30;99.90;;;;;;5153563;27;19973;-42
2022/11/10 02:40:49;;;;;;;;;;;9.30;99.90;;;;;;5154341;27;19914;-38
2022/11/10 02:43:15;;;;;;;;;;;9.30;99.90;;;;;;5154095;27;19919;-39
2022/11/10 02:45:43;;;;;;;;;;;9.30;99.90;;;;;;5153710;27;20520;-38
2022/11/10 02:48:09;;;;;;;;;;;9.30;99.90;;;;;;5154337;27;19960;-37
2022/11/10 02:50:34;;;;;;;;;;;9.30;99.90;;;;;;5154359;27;19911;-41
2022/11/10 02:53:00;;;;;;;;;;;9.30;99.90;;;;;;5153556;27;19917;-38
2022/11/10 02:55:26;;;;;;;;;;;9.30;99.90;;;;;;5154350;27;19921;-38
2022/11/10 02:57:51;;;;;;;;;;;9.30;99.90;;;;;;5152978;27;20285;-45
2022/11/10 03:00:17;;;;;;;;;;;9.30;99.90;;;;;;5153939;27;19958;-38
2022/11/10 03:02:43;;;;;;;;;;;9.30;99.90;;;;;;5154136;27;19911;-38
2022/11/10 03:05:08;;;;;;;;;;;9.30;99.90;;;;;;5153520;27;19915;-39
2022/11/10 03:07:34;;;;;;;;;;;9.30;99.90;;;;;;5154173;27;20358;-39
2022/11/10 03:09:59;;;;;;;;;;;9.30;99.90;;;;;;5154197;27;19907;-38
2022/11/10 03:12:25;;;;;;;;;;;9.30;99.90;;;;;;5153306;27;19958;-42
2022/11/10 03:14:50;;;;;;;;;;;9.30;99.90;;;;;;5154050;27;19931;-39
2022/11/10 03:17:16;;;;;;;;;;;9.30;99.90;;;;;;5153733;27;20280;-37
2022/11/10 03:19:41;;;;;;;;;;;9.40;99.90;;;;;;5152858;27;19915;-39
2022/11/10 03:22:06;;;;;;;;;;;9.40;99.90;;;;;;5154071;27;19917;-38
2022/11/10 03:24:32;;;;;;;;;;;9.40;99.90;;;;;;5153868;27;19994;-38
2022/11/10 03:26:57;;;;;;;;;;;9.40;99.90;;;;;;5153061;27;20263;-39
2022/11/10 03:29:23;;;;;;;;;;;9.40;99.90;;;;;;5153902;27;19952;-41
2022/11/10 03:31:48;;;;;;;;;;;9.50;99.90;;;;;;5153943;27;19911;-38
2022/11/10 03:34:14;;;;;;;;;;;9.50;99.90;;;;;;5153206;27;20319;-38
2022/11/10 03:36:39;;;;;;;;;;;9.50;99.90;;;;;;5153837;27;19908;-41
2022/11/10 03:39:04;;;;;;;;;;;9.50;99.90;;;;;;5153582;27;19919;-38
2022/11/10 03:41:30;;;;;;;;;;;9.50;99.90;;;;;;5152716;27;19915;-40
2022/11/10 03:43:55;;;;;;;;;;;9.50;99.90;;;;;;5153567;27;20376;-39
2022/11/10 03:46:21;;;;;;;;;;;9.40;99.90;;;;;;5153911;27;19907;-38
2022/11/10 03:48:46;;;;;;;;;;;9.50;99.90;;;;;;5156115;27;20378;-39
2022/11/10 03:51:12;;;;;;;;;;;9.50;99.90;;;;;;5157635;27;20179;-38
2022/11/10 03:53:37;;;;;;;;;;;9.40;99.90;;;;;;5157412;27;20002;-38
2022/11/10 03:56:03;;;;;;;;;;;9.40;99.90;;;;;;5156646;27;19907;-38
2022/11/10 03:58:29;;;;;;;;;;;9.40;99.90;;;;;;5157151;27;19937;-38
2022/11/10 04:00:55;;;;;;;;;;;9.40;99.90;;;;;;5157385;27;20366;-42
2022/11/10 04:03:20;;;;;;;;;;;9.40;99.90;;;;;;5156600;27;19911;-38
2022/11/10 04:15:40;;;;;;;;;;;9.50;99.90;;;;;;5157296;27;20371;-39
2022/11/10 04:16:47;;;;;;;;;;;9.50;99.90;;;;;;5156142;27;20274;-39
2022/11/10 04:19:13;;;;;;;;;;;9.50;99.90;;;;;;5156876;27;19915;-40
2022/11/10 04:21:39;;;;;;;;;;;9.50;99.90;;;;;;5156885;27;19907;-42
2022/11/10 04:24:04;;;;;;;;;;;9.50;99.90;;;;;;5155871;27;19907;-38
2022/11/10 04:26:31;;;;;;;;;;;9.50;99.90;;;;;;5156781;27;19928;-38
2022/11/10 04:28:58;;;;;;;;;;;9.50;99.90;;;;;;5156783;27;19918;-38
2022/11/10 04:31:24;;;;;;;;;;;9.50;99.90;;;;;;5156155;27;19914;-38
2022/11/10 04:33:51;;;;;;;;;;;9.50;99.90;;;;;;5156628;27;19914;-38
2022/11/10 04:36:18;;;;;;;;;;;9.50;99.90;;;;;;5156604;27;20289;-45
2022/11/10 04:38:43;;;;;;;;;;;9.50;99.90;;;;;;5155893;27;19919;-39
2022/11/10 04:41:09;;;;;;;;;;;9.50;99.90;;;;;;5156638;27;20311;-38
2022/11/10 04:43:35;;;;;;;;;;;9.50;99.90;;;;;;5155659;27;19919;-42
2022/11/10 04:46:01;;;;;;;;;;;9.60;99.90;;;;;;5156485;27;19946;-42
2022/11/10 04:48:27;;;;;;;;;;;9.60;99.90;;;;;;5156422;27;19914;-38
2022/11/10 04:50:53;;;;;;;;;;;9.60;99.90;;;;;;5155507;27;19959;-41
2022/11/10 04:53:19;;;;;;;;;;;9.60;99.90;;;;;;5156435;27;19958;-39
2022/11/10 04:55:45;;;;;;;;;;;9.60;99.90;;;;;;5155975;27;19917;-39
2022/11/10 04:58:11;;;;;;;;;;;9.60;99.90;;;;;;5155281;27;19949;-38
2022/11/10 05:00:37;;;;;;;;;;;9.60;99.90;;;;;;5156093;27;19907;-39
2022/11/10 05:03:03;;;;;;;;;;;9.60;99.90;;;;;;5156126;27;19915;-39
2022/11/10 05:05:29;;;;;;;;;;;9.60;99.90;;;;;;5155213;27;20361;-42
2022/11/10 05:07:55;;;;;;;;;;;9.60;99.90;;;;;;5155767;27;19911;-38
2022/11/10 05:10:20;;;;;;;;;;;9.60;99.90;;;;;;5156071;27;19961;-39
2022/11/10 05:12:45;;;;;;;;;;;9.60;99.90;;;;;;5155087;27;19907;-39
2022/11/10 05:15:11;;;;;;;;;;;9.60;99.90;;;;;;5155906;27;19907;-39
2022/11/10 05:17:36;;;;;;;;;;;9.60;99.90;;;;;;5155745;27;19914;-38
2022/11/10 05:20:02;;;;;;;;;;;9.60;99.90;;;;;;5155182;27;19995;-38
2022/11/10 05:22:27;;;;;;;;;;;9.60;99.90;;;;;;5155897;27;20388;-38
2022/11/10 05:24:53;;;;;;;;;;;9.60;99.90;;;;;;5155759;27;20365;-38
2022/11/10 05:27:18;;;;;;;;;;;9.60;99.90;;;;;;5154878;27;19907;-38
2022/11/10 05:29:44;;;;;;;;;;;9.60;99.90;;;;;;5155498;27;19911;-38
2022/11/10 05:32:09;;;;;;;;;;;9.60;99.90;;;;;;5155519;27;19914;-37
2022/11/10 05:34:35;;;;;;;;;;;9.60;99.90;;;;;;5154916;27;19914;-38
2022/11/10 05:37:00;;;;;;;;;;;9.60;99.90;;;;;;5154848;27;19990;-39
2022/11/10 05:39:26;;;;;;;;;;;9.60;99.90;;;;;;5154736;27;19919;-39
2022/11/10 05:41:51;;;;;;;;;;;9.60;99.90;;;;;;5154505;27;19913;-40
2022/11/10 05:44:16;;;;;;;;;;;9.60;99.90;;;;;;5155143;27;19923;-43
2022/11/10 05:46:42;;;;;;;;;;;9.60;99.90;;;;;;5154438;27;20270;-39
2022/11/10 05:49:07;;;;;;;;;;;9.60;99.90;;;;;;5155346;27;19911;-40
2022/11/10 05:51:33;;;;;;;;;;;9.60;99.90;;;;;;5155186;27;19908;-37
2022/11/10 05:53:58;;;;;;;;;;;9.60;99.90;;;;;;5154034;27;19911;-40
2022/11/10 05:56:24;;;;;;;;;;;9.60;99.90;;;;;;5154918;27;19962;-38
2022/11/10 05:58:49;;;;;;;;;;;9.60;99.90;;;;;;5154836;27;19915;-38
2022/11/10 06:01:15;;;;;;;;;;;9.70;99.90;;;;;;5153704;27;19911;-42
2022/11/10 06:03:40;;;;;;;;;;;9.60;99.90;;;;;;5154451;27;20277;-41
2022/11/10 06:06:06;;;;;;;;;;;9.70;99.90;;;;;;5154105;27;19912;-40
2022/11/10 06:08:31;;;;;;;;;;;9.70;99.90;;;;;;5153803;27;20011;-39
2022/11/10 06:10:57;;;;;;;;;;;9.70;99.90;;;;;;5154367;27;19911;-42
2022/11/10 06:13:22;;;;;;;;;;;9.70;99.90;;;;;;5154854;27;19907;-38
2022/11/10 06:15:48;;;;;;;;;;;9.80;99.90;;;;;;5153771;27;20388;-39
2022/11/10 06:18:13;;;;;;;;;;;9.80;99.90;;;;;;5154007;27;19915;-37
2022/11/10 06:20:38;;;;;;;;;;;9.80;99.90;;;;;;5154659;27;19907;-38
2022/11/10 06:23:05;;;;;;;;;;;9.80;99.90;;;;;;5153997;27;19907;-38
2022/11/10 06:25:32;;;;;;;;;;;9.80;99.90;;;;;;5170657;27;20342;-38
2022/11/10 06:27:58;;;;;;;;;;;9.80;99.90;;;;;;5154651;27;20333;-37
2022/11/10 06:30:24;;;;;;;;;;;9.80;99.90;;;;;;5153786;27;19987;-38
2022/11/10 06:32:50;;;;;;;;;;;9.80;99.90;;;;;;5154435;27;19960;-38
2022/11/10 06:35:15;;;;;;;;;;;9.80;99.90;;;;;;5154527;27;19907;-39
2022/11/10 06:37:41;;;;;;;;;;;9.80;99.90;;;;;;5152680;27;20361;-40
2022/11/10 06:40:07;;;;;;;;;;;9.80;99.90;;;;;;5154442;27;19907;-44
2022/11/10 06:42:33;;;;;;;;;;;9.80;99.90;;;;;;5154337;27;20358;-38
2022/11/10 06:44:59;;;;;;;;;;;9.70;99.90;;;;;;5153250;27;19926;-38
2022/11/10 06:47:24;;;;;;;;;;;9.70;99.90;;;;;;5154397;27;20353;-39
2022/11/10 06:49:49;;;;;;;;;;;9.70;99.90;;;;;;5154186;27;20281;-38
2022/11/10 06:52:15;;;;;;;;;;;9.70;99.90;;;;;;5153511;27;19907;-39
2022/11/10 06:54:40;;;;;;;;;;;9.70;99.90;;;;;;5153923;27;20425;-38
2022/11/10 06:57:06;;;;;;;;;;;9.70;99.90;;;;;;5153119;27;20320;-39
2022/11/10 06:59:32;;;;;;;;;;;9.70;99.90;;;;;;5154021;27;19922;-39
2022/11/10 07:01:57;;;;;;;;;;;9.70;99.90;;;;;;5153809;27;19911;-38
2022/11/10 07:04:23;;;;;;;;;;;9.70;99.90;;;;;;5153511;27;20358;-38
2022/11/10 07:06:48;;;;;;;;;;;9.70;99.90;;;;;;5153744;27;20006;-39
2022/11/10 07:09:14;;;;;;;;;;;9.70;99.90;;;;;;5153985;27;19954;-38
2022/11/10 07:11:39;;;;;;;;;;;9.70;99.90;;;;;;5153193;27;19907;-39
2022/11/10 07:14:05;;;;;;;;;;;9.80;99.90;;;;;;5154100;27;19911;-41
2022/11/10 07:16:30;;;;;;;;;;;9.80;99.90;;;;;;5153895;27;19960;-39
2022/11/10 07:18:56;;;;;;;;;;;9.80;99.90;;;;;;5152429;27;19923;-38
2022/11/10 07:21:21;;;;;;;;;;;9.80;99.90;;;;;;5152657;27;19947;-38
2022/11/10 07:23:47;;;;;;;;;;;9.80;99.90;;;;;;5156025;27;19919;-43
2022/11/10 07:26:12;;;;;;;;;;;9.90;99.90;;;;;;5157250;27;19907;-38
2022/11/10 07:28:37;;;;;;;;;;;10.00;99.90;;;;;;5157139;27;19908;-38
2022/11/10 07:31:03;;;;;;;;;;;10.00;99.90;;;;;;5157143;27;20365;-40
2022/11/10 07:33:29;;;;;;;;;;;10.00;99.90;;;;;;5156964;27;19907;-44
2022/11/10 07:35:58;;;;;;;;;;;10.10;99.90;;;;;;5157696;27;20425;-38
2022/11/10 07:38:23;;;;;;;;;;;10.10;99.90;;;;;;5157778;27;19915;-38
2022/11/10 07:40:50;;;;;;;;;;;10.10;99.90;;;;;;5156632;27;19915;-40
2022/11/10 07:43:15;;;;;;;;;;;10.20;99.90;;;;;;5156760;27;20530;-40
2022/11/10 07:45:41;;;;;;;;;;;10.20;99.90;;;;;;5157074;27;19961;-42
2022/11/10 07:48:07;;;;;;;;;;;10.10;99.90;;;;;;5145284;27;19907;-38
2022/11/10 07:50:33;;;;;;;;;;;10.20;99.90;;;;;;5157482;27;20013;-39
2022/11/10 07:53:04;;;;;;;;;;;10.10;99.90;;;;;;5157379;27;19907;-38
2022/11/10 07:55:29;;;;;;;;;;;10.20;99.90;;;;;;5156513;27;19975;-38
2022/11/10 07:57:58;;;;;;;;;;;10.20;99.90;;;;;;5157240;27;20393;-42
2022/11/10 08:00:24;;;;;;;;;;;10.20;99.90;;;;;;5156664;27;19907;-41
2022/11/10 08:02:50;;;;;;;;;;;10.20;99.90;;;;;;5157181;27;19907;-40
2022/11/10 08:05:15;;;;;;;;;;;10.20;99.90;;;;;;5157181;27;19963;-39
2022/11/10 08:07:41;;;;;;;;;;;10.30;99.90;;;;;;5156361;27;20274;-38
2022/11/10 08:10:06;;;;;;;;;;;10.30;99.90;;;;;;5157232;27;19907;-38
2022/11/10 08:12:32;;;;;;;;;;;10.30;99.90;;;;;;5156935;27;19907;-40
2022/11/10 08:14:57;;;;;;;;;;;10.30;99.90;;;;;;5156328;27;19911;-39
2022/11/10 08:17:22;;;;;;;;;;;10.40;99.90;;;;;;5156979;27;19907;-38
2022/11/10 08:19:48;;;;;;;;;;;10.40;99.90;;;;;;5156958;27;20010;-39
2022/11/10 08:22:13;;;;;;;;;;;10.30;99.90;;;;;;5156193;27;20353;-40
2022/11/10 08:24:39;;;;;;;;;;;10.40;99.90;;;;;;5156779;27;19907;-38
2022/11/10 08:27:05;;;;;;;;;;;10.40;99.90;;;;;;5156996;27;20370;-39
2022/11/10 08:29:30;;;;;;;;;;;10.40;99.90;;;;;;5156001;27;19959;-39
2022/11/10 08:31:56;;;;;;;;;;;10.40;99.90;;;;;;5156625;27;19998;-39
2022/11/10 08:34:21;;;;;;;;;;;10.40;99.90;;;;;;5156260;27;19911;-38
2022/11/10 08:36:47;;;;;;;;;;;10.50;99.90;;;;;;5155812;27;19914;-39
2022/11/10 08:39:13;;;;;;;;;;;10.50;99.90;;;;;;5156600;27;20293;-41
2022/11/10 08:41:38;;;;;;;;;;;10.60;99.90;;;;;;5156224;27;20369;-39
2022/11/10 08:44:04;;;;;;;;;;;10.70;99.90;;;;;;5154773;27;20328;-39
2022/11/10 08:46:29;;;;;;;;;;;10.70;99.90;;;;;;5155406;27;20384;-40
2022/11/10 08:48:55;;;;;;;;;;;10.90;99.90;;;;;;5155516;27;19964;-39
2022/11/10 08:51:21;;;;;;;;;;;10.90;99.90;;;;;;5155226;27;19952;-40
2022/11/10 08:53:46;;;;;;;;;;;11.10;99.90;;;;;;5155507;27;19918;-39
2022/11/10 08:56:12;;;;;;;;;;;11.20;99.90;;;;;;5155985;27;19911;-39
2022/11/10 08:58:37;;;;;;;;;;;11.20;99.90;;;;;;5154080;27;19919;-40
2022/11/10 09:01:10;;;;;;;;;;;11.30;99.90;;;;;;5154808;27;19954;-45
2022/11/10 09:03:36;;;;;;;;;;;11.30;99.90;;;;;;5152693;27;20048;-41
2022/11/10 09:06:01;;;;;;;;;;;11.40;99.90;;;;;;5155687;27;20394;-39
2022/11/10 09:08:27;;;;;;;;;;;11.40;99.90;;;;;;5155458;27;19907;-41
2022/11/10 09:10:53;;;;;;;;;;;11.40;99.90;;;;;;5154686;27;19929;-40
2022/11/10 09:13:20;;;;;;;;;;;11.50;99.90;;;;;;5155150;27;19936;-39
2022/11/10 09:15:46;;;;;;;;;;;11.50;99.90;;;;;;5155247;27;20322;-39
2022/11/10 09:18:12;;;;;;;;;;;11.60;99.90;;;;;;5155041;27;20411;-39
2022/11/10 09:20:38;;;;;;;;;;;11.60;99.90;;;;;;5155751;27;20001;-40
2022/11/10 09:23:04;;;;;;;;;;;11.60;99.90;;;;;;5155784;27;19942;-39
2022/11/10 09:25:30;;;;;;;;;;;11.70;99.90;;;;;;5154828;27;19998;-38
2022/11/10 09:27:55;;;;;;;;;;;11.80;99.90;;;;;;5155590;27;20411;-40
2022/11/10 09:30:21;;;;;;;;;;;11.80;99.90;;;;;;5155625;27;19911;-44
2022/11/10 09:32:51;;;;;;;;;;;11.90;99.90;;;;;;5154228;27;19955;-38
2022/11/10 09:35:17;;;;;;;;;;;12.00;99.90;;;;;;5155336;27;19911;-42
2022/11/10 09:37:42;;;;;;;;;;;12.10;99.90;;;;;;5155298;27;19929;-37
2022/11/10 09:40:14;;;;;;;;;;;12.10;99.90;;;;;;5154801;27;19911;-39
2022/11/10 09:42:40;;;;;;;;;;;12.30;99.90;;;;;;5155465;27;19911;-38
2022/11/10 09:45:19;;;;;;;;;;;12.30;99.90;;;;;;5154209;27;19974;-39
2022/11/10 09:47:52;;;;;;;;;;;12.30;99.90;;;;;;5154446;27;20067;-43
2022/11/10 09:50:20;;;;;;;;;;;12.40;99.90;;;;;;5155323;27;19958;-39
2022/11/10 09:52:48;;;;;;;;;;;12.40;99.90;;;;;;5154016;27;20317;-42
2022/11/10 09:55:32;;;;;;;;;;;12.50;99.90;;;;;;5155045;27;19907;-39
2022/11/10 09:57:58;;;;;;;;;;;12.60;99.90;;;;;;5154909;27;20347;-40
2022/11/10 10:00:24;;;;;;;;;;;12.60;99.90;;;;;;5154303;27;20001;-38
2022/11/10 10:02:49;;;;;;;;;;;12.70;99.90;;;;;;5154489;27;19984;-40
2022/11/10 10:05:32;;;;;;;;;;;12.70;99.90;;;;;;5155019;27;20372;-38
2022/11/10 10:08:14;;;;;;;;;;;12.80;99.90;;;;;;5154130;27;19964;-39
2022/11/10 10:10:48;;;;;;;;;;;12.80;99.90;;;;;;5154785;27;19930;-39
2022/11/10 10:13:19;;;;;;;;;;;12.90;99.90;;;;;;5154712;27;19907;-37
2022/11/10 10:16:03;;;;;;;;;;;12.90;99.90;;;;;;5154014;27;20389;-38
2022/11/10 10:18:47;;;;;;;;;;;12.90;99.90;;;;;;5154715;27;19911;-38
2022/11/10 10:21:31;;;;;;;;;;;12.80;99.90;;;;;;5153907;27;19908;-38
2022/11/10 10:23:58;;;;;;;;;;;12.90;99.90;;;;;;5154579;27;19989;-38
2022/11/10 10:26:26;;;;;;;;;;;12.90;99.90;;;;;;5154713;27;19907;-39
2022/11/10 10:28:52;;;;;;;;;;;13.00;99.90;;;;;;5153747;27;19998;-39
2022/11/10 10:31:19;;;;;;;;;;;13.10;99.90;;;;;;5154604;27;19965;-40
2022/11/10 10:33:45;;;;;;;;;;;13.10;99.90;;;;;;5153907;27;19918;-38
2022/11/10 10:36:15;;;;;;;;;;;13.10;99.90;;;;;;5153252;27;20285;-39
2022/11/10 10:38:42;;;;;;;;;;;13.20;99.90;;;;;;5154278;27;20278;-38
2022/11/10 10:41:14;;;;;;;;;;;13.20;99.90;;;;;;5154621;27;19911;-40
2022/11/10 10:43:40;;;;;;;;;;;13.30;99.90;;;;;;5153315;27;19962;-38
2022/11/10 10:46:07;;;;;;;;;;;13.30;99.90;;;;;;5154255;27;19911;-39
2022/11/10 10:48:33;;;;;;;;;;;13.20;99.90;;;;;;5154235;27;20042;-38
2022/11/10 10:50:58;;;;;;;;;;;13.20;99.90;;;;;;5153486;27;20011;-39
2022/11/10 10:53:24;;;;;;;;;;;13.20;99.90;;;;;;5154387;27;19963;-39
2022/11/10 10:56:00;;;;;;;;;;;13.10;99.90;;;;;;5154232;27;20361;-39
2022/11/10 10:58:46;;;;;;;;;;;13.20;99.90;;;;;;5157844;27;20006;-39
2022/11/10 11:01:14;;;;;;;;;;;13.20;99.90;;;;;;5158167;27;19919;-39
2022/11/10 11:03:43;;;;;;;;;;;13.20;99.90;;;;;;5156697;27;20411;-38
2022/11/10 11:06:15;;;;;;;;;;;13.20;99.90;;;;;;5158483;27;19998;-40
2022/11/10 11:08:55;;;;;;;;;;;13.20;99.90;;;;;;5158267;27;19997;-38
2022/11/10 11:11:29;;;;;;;;;;;13.30;99.90;;;;;;5157684;27;19913;-39
2022/11/10 11:14:13;;;;;;;;;;;13.30;99.90;;;;;;5158281;27;20354;-38
2022/11/10 11:16:48;;;;;;;;;;;13.40;99.90;;;;;;5158218;27;19907;-38
2022/11/10 11:19:14;;;;;;;;;;;13.40;99.90;;;;;;5157356;27;20013;-38
2022/11/10 11:22:00;;;;;;;;;;;13.50;99.90;;;;;;5158083;27;19961;-41
2022/11/10 11:24:29;;;;;;;;;;;13.50;99.90;;;;;;5138961;27;20254;-41
2022/11/10 11:26:57;;;;;;;;;;;13.60;99.90;;;;;;5158035;27;19914;-39
2022/11/10 11:29:43;;;;;;;;;;;13.70;99.90;;;;;;5158045;27;20008;-38
2022/11/10 11:32:18;;;;;;;;;;;13.70;99.90;;;;;;5156037;27;20357;-38
2022/11/10 11:34:44;;;;;;;;;;;13.80;99.90;;;;;;5137183;27;19963;-37
2022/11/10 11:37:24;;;;;;;;;;;13.70;99.90;;;;;;5137047;27;20006;-41
2022/11/10 11:40:09;;;;;;;;;;;13.80;99.90;;;;;;5136220;27;19915;-41
2022/11/10 11:42:41;;;;;;;;;;;13.80;99.90;;;;;;5137076;27;19935;-38
2022/11/10 11:45:15;;;;;;;;;;;13.80;99.90;;;;;;5137164;27;19923;-39
2022/11/10 11:47:52;;;;;;;;;;;13.70;99.90;;;;;;5154394;27;20292;-38
2022/11/10 11:50:28;;;;;;;;;;;13.80;99.90;;;;;;5157182;27;19914;-39
2022/11/10 11:52:59;;;;;;;;;;;13.80;99.90;;;;;;5156446;27;19911;-38
2022/11/10 11:55:36;;;;;;;;;;;13.90;99.90;;;;;;5157484;27;19918;-39
2022/11/10 11:58:04;;;;;;;;;;;13.90;99.90;;;;;;5157359;27;19915;-38
2022/11/10 12:00:39;;;;;;;;;;;13.90;99.90;;;;;;5156584;27;19915;-38
2022/11/10 12:03:07;;;;;;;;;;;14.00;99.90;;;;;;5157429;27;19907;-38
2022/11/10 12:05:51;;;;;;;;;;;14.10;99.90;;;;;;5157283;27;19921;-38
2022/11/10 12:08:19;;;;;;;;;;;14.10;99.90;;;;;;5155503;27;19910;-39
2022/11/10 12:10:45;;;;;;;;;;;14.10;99.90;;;;;;5157264;27;19930;-38
2022/11/10 12:13:23;;;;;;;;;;;14.20;99.90;;;;;;5157238;27;19907;-38
2022/11/10 12:15:54;;;;;;;;;;;14.30;99.90;;;;;;5156482;27;19911;-39
2022/11/10 12:18:55;;;;;;;;;;;14.30;99.90;;;;;;5156921;27;19964;-39
2022/11/10 12:21:22;;;;;;;;;;;14.30;99.90;;;;;;5052093;28;20414;-39
2022/11/10 12:24:06;;;;;;;;;;;14.30;99.90;;;;;;5135304;27;19907;-39
2022/11/10 12:26:53;;;;;;;;;;;14.30;99.90;;;;;;5156849;27;20312;-39
2022/11/10 12:29:18;;;;;;;;;;;14.30;99.90;;;;;;5155804;27;19914;-40
2022/11/10 12:31:45;;;;;;;;;;;14.30;99.90;;;;;;5156734;27;19911;-39
2022/11/10 12:34:16;;;;;;;;;;;14.30;99.90;;;;;;5156776;27;20376;-38
2022/11/10 12:36:43;;;;;;;;;;;14.30;99.90;;;;;;5156028;27;19955;-39
2022/11/10 12:39:15;;;;;;;;;;;14.20;99.90;;;;;;5156508;27;19919;-39
2022/11/10 12:41:46;;;;;;;;;;;14.20;99.90;;;;;;5155750;27;19907;-37
2022/11/10 12:44:11;;;;;;;;;;;14.20;99.90;;;;;;5156202;27;20361;-41
2022/11/10 12:46:37;;;;;;;;;;;14.20;99.90;;;;;;5156525;27;19914;-40
2022/11/10 12:49:06;;;;;;;;;;;14.20;99.90;;;;;;5155621;27;19907;-42
2022/11/10 12:51:37;;;;;;;;;;;14.20;99.90;;;;;;5156281;27;19907;-38
2022/11/10 12:54:03;;;;;;;;;;;14.30;99.90;;;;;;5155998;27;19968;-43
2022/11/10 12:56:33;;;;;;;;;;;14.30;99.90;;;;;;5155572;27;19992;-39
2022/11/10 12:59:13;;;;;;;;;;;14.30;99.90;;;;;;5156198;27;19915;-39
2022/11/10 13:01:43;;;;;;;;;;;14.40;99.90;;;;;;5155719;27;20385;-44
2022/11/10 13:04:12;;;;;;;;;;;14.40;99.90;;;;;;5155329;27;19918;-39
2022/11/10 13:06:44;;;;;;;;;;;14.40;99.90;;;;;;5172282;27;20352;-40
2022/11/10 13:09:20;;;;;;;;;;;14.40;99.90;;;;;;5156173;27;19914;-41
2022/11/10 13:12:02;;;;;;;;;;;14.40;99.90;;;;;;5155251;27;19907;-41
2022/11/10 13:14:28;;;;;;;;;;;14.50;99.90;;;;;;5155947;27;20365;-40
2022/11/10 13:16:55;;;;;;;;;;;14.60;99.90;;;;;;5155129;27;19907;-40
2022/11/10 13:19:23;;;;;;;;;;;14.60;99.90;;;;;;5155724;27;19923;-40
2022/11/10 13:21:49;;;;;;;;;;;14.60;99.90;;;;;;5155823;27;19974;-39
2022/11/10 13:24:19;;;;;;;;;;;14.60;99.90;;;;;;5154678;27;20386;-39
2022/11/10 13:26:47;;;;;;;;;;;14.60;99.90;;;;;;5155702;27;19914;-39
2022/11/10 13:29:35;;;;;;;;;;;14.70;99.90;;;;;;5155598;27;19917;-39
2022/11/10 13:32:07;;;;;;;;;;;14.60;99.90;;;;;;5154712;27;20363;-37
2022/11/10 13:34:33;;;;;;;;;;;14.60;99.90;;;;;;5136921;27;20293;-39
2022/11/10 13:36:59;;;;;;;;;;;14.60;99.90;;;;;;5155566;27;19930;-40
2022/11/10 13:39:27;;;;;;;;;;;14.50;99.90;;;;;;5154620;27;19915;-40
2022/11/10 13:41:55;;;;;;;;;;;14.50;99.90;;;;;;5155651;27;19915;-39
2022/11/10 13:44:22;;;;;;;;;;;14.50;99.90;;;;;;5155048;27;19919;-42
2022/11/10 13:46:54;;;;;;;;;;;14.60;99.90;;;;;;5154494;27;20342;-38
2022/11/10 13:49:28;;;;;;;;;;;14.60;99.90;;;;;;5155187;27;20418;-40
2022/11/10 13:51:54;;;;;;;;;;;14.70;99.90;;;;;;5155176;27;20001;-40
2022/11/10 13:54:38;;;;;;;;;;;14.60;99.90;;;;;;5153976;27;19998;-38
2022/11/10 13:57:27;;;;;;;;;;;14.60;99.90;;;;;;5155164;27;19907;-40
2022/11/10 13:59:55;;;;;;;;;;;14.60;99.90;;;;;;5140167;27;19918;-39
2022/11/10 14:02:32;;;;;;;;;;;14.60;99.90;;;;;;5154551;27;20432;-38
2022/11/10 14:04:59;;;;;;;;;;;14.50;99.90;;;;;;5155109;27;19911;-38
2022/11/10 14:07:26;;;;;;;;;;;14.50;99.90;;;;;;5154219;27;19907;-39
2022/11/10 14:09:52;;;;;;;;;;;14.50;99.90;;;;;;5154897;27;20376;-39
2022/11/10 14:12:22;;;;;;;;;;;14.50;99.90;;;;;;5154879;27;19907;-40
2022/11/10 14:15:02;;;;;;;;;;;14.50;99.90;;;;;;5153715;27;19907;-40
2022/11/10 14:17:38;;;;;;;;;;;14.50;99.90;;;;;;5140024;27;19911;-40
2022/11/10 14:20:18;;;;;;;;;;;14.40;99.90;;;;;;5154504;27;20364;-41
2022/11/10 14:22:46;;;;;;;;;;;14.40;99.90;;;;;;5154679;27;19907;-40
2022/11/10 14:25:29;;;;;;;;;;;14.40;99.90;;;;;;5154690;27;19911;-39
2022/11/10 14:27:54;;;;;;;;;;;14.40;99.90;;;;;;5153807;27;19911;-40
2022/11/10 14:30:23;;;;;;;;;;;14.30;99.90;;;;;;5154553;27;19907;-39
2022/11/10 14:32:56;;;;;;;;;;;14.30;99.90;;;;;;5154184;27;19969;-41
2022/11/10 14:35:23;;;;;;;;;;;14.30;99.90;;;;;;5153749;27;19911;-39
2022/11/10 14:37:48;;;;;;;;;;;14.30;99.90;;;;;;5154631;27;19907;-38
2022/11/10 14:40:16;;;;;;;;;;;14.30;99.90;;;;;;5154703;27;19918;-41